Time;durP1;ratioP1;P1;durP2;ratioP2;P2;SDS_P1;SDS_P2;PMS_P1;PMS_P2;Temp;Humidity;BMP_temperature;BMP_pressure;BME280_temperature;BME280_humidity;BME280_pressure;Samples;Min_cycle;Max_cycle;Signal;HPM_P1;HPM_P2
2023/03/02 00:01:39;;;;;;;20.67;14.57;;;;;;;;;;5074504;28;20426;-49
2023/03/02 00:04:07;;;;;;;24.03;15.40;;;;;;;;;;5074631;28;20437;-49
2023/03/02 00:06:35;;;;;;;23.57;14.70;;;;;;;;;;5074470;28;20425;-49
2023/03/02 00:09:03;;;;;;;26.53;15.57;;;;;;;;;;5074759;28;20454;-49
2023/03/02 00:11:30;;;;;;;21.40;14.63;;;;;;;;;;5074341;28;20966;-49
2023/03/02 00:13:56;;;;;;;22.50;15.70;;;;;;;;;;5074124;28;20939;-48
2023/03/02 00:16:22;;;;;;;21.43;15.33;;;;;;;;;;5074557;28;20513;-49
2023/03/02 00:18:48;;;;;;;22.10;15.83;;;;;;;;;;5074154;28;20437;-47
2023/03/02 00:21:14;;;;;;;23.97;15.73;;;;;;;;;;5074244;28;20485;-47
2023/03/02 00:23:42;;;;;;;25.27;16.37;;;;;;;;;;5074086;28;20220;-48
2023/03/02 00:26:08;;;;;;;23.90;14.77;;;;;;;;;;5074545;28;20533;-47
2023/03/02 00:28:35;;;;;;;20.37;14.83;;;;;;;;;;5074241;28;20438;-47
2023/03/02 00:31:03;;;;;;;22.70;15.17;;;;;;;;;;5073892;28;20705;-47
2023/03/02 00:33:29;;;;;;;23.80;15.90;;;;;;;;;;5074265;28;20873;-47
2023/03/02 00:35:55;;;;;;;23.13;15.20;;;;;;;;;;5073941;28;20445;-47
2023/03/02 00:38:21;;;;;;;24.00;15.90;;;;;;;;;;5074226;28;20430;-47
2023/03/02 00:40:49;;;;;;;21.37;15.87;;;;;;;;;;5073875;28;20270;-48
2023/03/02 00:43:15;;;;;;;24.50;16.03;;;;;;;;;;5073424;28;20727;-47
2023/03/02 00:45:41;;;;;;;21.83;16.20;;;;;;;;;;5073546;28;20933;-47
2023/03/02 00:48:07;;;;;;;21.83;15.10;;;;;;;;;;5074037;28;20448;-48
2023/03/02 00:50:39;;;;;;;22.30;15.37;;;;;;;;;;5073704;28;20653;-48
2023/03/02 00:53:06;;;;;;;26.17;15.67;;;;;;;;;;5072671;28;21019;-47
2023/03/02 00:55:32;;;;;;;21.67;15.67;;;;;;;;;;5073576;28;20927;-48
2023/03/02 00:57:59;;;;;;;22.37;15.80;;;;;;;;;;5073498;28;20433;-47
2023/03/02 01:00:27;;;;;;;23.93;15.57;;;;;;;;;;5073479;28;20476;-47
2023/03/02 01:02:53;;;;;;;22.40;15.73;;;;;;;;;;5073597;28;20441;-48
2023/03/02 01:05:19;;;;;;;21.03;15.53;;;;;;;;;;5073652;28;20430;-48
2023/03/02 01:07:45;;;;;;;23.23;15.47;;;;;;;;;;5072973;28;20460;-49
2023/03/02 01:10:11;;;;;;;24.20;16.00;;;;;;;;;;5073560;28;20917;-48
2023/03/02 01:12:37;;;;;;;23.27;15.17;;;;;;;;;;5073213;28;20566;-48
2023/03/02 01:15:06;;;;;;;21.97;15.43;;;;;;;;;;5073648;28;20462;-48
2023/03/02 01:17:32;;;;;;;22.77;15.60;;;;;;;;;;5073274;28;20594;-48
2023/03/02 01:19:58;;;;;;;24.80;16.70;;;;;;;;;;5072895;28;21219;-48
2023/03/02 01:22:24;;;;;;;24.20;16.60;;;;;;;;;;5073322;28;20272;-49
2023/03/02 01:24:52;;;;;;;26.77;16.10;;;;;;;;;;5073193;28;20892;-48
2023/03/02 01:27:18;;;;;;;21.80;15.47;;;;;;;;;;5073121;28;20257;-48
2023/03/02 01:29:44;;;;;;;24.67;16.30;;;;;;;;;;5070857;28;20939;-48
2023/03/02 01:32:13;;;;;;;24.90;16.57;;;;;;;;;;5073179;28;20437;-49
2023/03/02 01:34:39;;;;;;;25.20;16.20;;;;;;;;;;5073033;28;20458;-48
2023/03/02 01:37:05;;;;;;;25.40;16.57;;;;;;;;;;5073189;28;20441;-47
2023/03/02 01:39:31;;;;;;;19.47;14.63;;;;;;;;;;5072696;28;20442;-47
2023/03/02 01:41:57;;;;;;;24.13;16.03;;;;;;;;;;5072927;28;20203;-48
2023/03/02 01:44:33;;;;;;;27.57;16.17;;;;;;;;;;5072781;28;20284;-48
2023/03/02 01:47:00;;;;;;;21.17;15.00;;;;;;;;;;5072721;28;20491;-48
2023/03/02 01:49:27;;;;;;;22.50;16.43;;;;;;;;;;5072776;28;20457;-48
2023/03/02 01:51:53;;;;;;;24.87;17.27;;;;;;;;;;5072737;28;20936;-48
2023/03/02 01:54:21;;;;;;;24.00;16.77;;;;;;;;;;5072726;28;20963;-48
2023/03/02 01:56:49;;;;;;;25.27;17.23;;;;;;;;;;5072493;28;20454;-49
2023/03/02 01:59:16;;;;;;;25.87;18.13;;;;;;;;;;5072544;28;20493;-49
2023/03/02 02:01:44;;;;;;;25.47;17.50;;;;;;;;;;5072400;28;20508;-48
2023/03/02 02:04:12;;;;;;;28.20;18.97;;;;;;;;;;5072129;28;20786;-49
2023/03/02 02:06:41;;;;;;;27.83;18.40;;;;;;;;;;5072367;28;20453;-49
2023/03/02 02:09:08;;;;;;;26.60;17.50;;;;;;;;;;5072567;28;20454;-49
2023/03/02 02:11:34;;;;;;;27.03;18.00;;;;;;;;;;5072325;28;20474;-48
2023/03/02 02:14:01;;;;;;;28.43;18.67;;;;;;;;;;5072169;28;20466;-49
2023/03/02 02:16:28;;;;;;;29.93;18.27;;;;;;;;;;5072189;28;20438;-49
2023/03/02 02:18:54;;;;;;;29.50;20.17;;;;;;;;;;5072122;28;20517;-49
2023/03/02 02:21:21;;;;;;;29.87;20.23;;;;;;;;;;5072210;28;20474;-48
2023/03/02 02:23:54;;;;;;;31.97;19.77;;;;;;;;;;5071897;28;20441;-49
2023/03/02 02:26:23;;;;;;;31.87;19.80;;;;;;;;;;5072222;28;20493;-49
2023/03/02 02:28:56;;;;;;;29.57;18.07;;;;;;;;;;5071926;28;20453;-49
2023/03/02 02:31:25;;;;;;;27.90;18.10;;;;;;;;;;5072188;28;20446;-49
2023/03/02 02:33:52;;;;;;;31.10;19.10;;;;;;;;;;5071923;28;20525;-49
2023/03/02 02:36:21;;;;;;;29.37;17.43;;;;;;;;;;5071895;28;20472;-49
2023/03/02 02:38:49;;;;;;;31.57;18.43;;;;;;;;;;5071658;28;20445;-49
2023/03/02 02:41:18;;;;;;;26.20;17.40;;;;;;;;;;5071805;28;20546;-49
2023/03/02 02:43:46;;;;;;;30.33;16.97;;;;;;;;;;5071342;28;20473;-49
2023/03/02 02:46:12;;;;;;;20.00;14.83;;;;;;;;;;5071653;28;20955;-48
2023/03/02 02:48:38;;;;;;;21.77;15.07;;;;;;;;;;5071594;28;20469;-48
2023/03/02 02:51:05;;;;;;;25.83;15.43;;;;;;;;;;5071689;28;20478;-48
2023/03/02 02:53:35;;;;;;;22.70;16.37;;;;;;;;;;5071478;28;20253;-48
2023/03/02 02:56:01;;;;;;;22.30;15.93;;;;;;;;;;5071542;28;20492;-48
2023/03/02 02:58:30;;;;;;;20.20;15.67;;;;;;;;;;5071363;28;20963;-48
2023/03/02 03:00:58;;;;;;;24.00;15.07;;;;;;;;;;5071553;28;20469;-48
2023/03/02 03:03:29;;;;;;;20.60;15.13;;;;;;;;;;5071508;28;20442;-49
2023/03/02 03:05:56;;;;;;;22.20;15.30;;;;;;;;;;5071385;28;20442;-49
2023/03/02 03:08:39;;;;;;;21.73;15.13;;;;;;;;;;5071588;28;20426;-49
2023/03/02 03:11:05;;;;;;;20.83;15.33;;;;;;;;;;5070676;28;20521;-49
2023/03/02 03:13:32;;;;;;;24.43;15.87;;;;;;;;;;5071117;28;20972;-49
2023/03/02 03:16:00;;;;;;;24.10;14.40;;;;;;;;;;5070503;28;20442;-50
2023/03/02 03:18:26;;;;;;;20.77;14.73;;;;;;;;;;5071255;28;20469;-49
2023/03/02 03:20:52;;;;;;;19.73;15.70;;;;;;;;;;5071230;28;21019;-49
2023/03/02 03:23:18;;;;;;;20.03;14.57;;;;;;;;;;5071252;28;20192;-49
2023/03/02 03:25:44;;;;;;;16.43;13.47;;;;;;;;;;5071102;28;20863;-49
2023/03/02 03:28:10;;;;;;;18.47;13.80;;;;;;;;;;5071338;28;20199;-49
2023/03/02 03:30:36;;;;;;;19.07;15.30;;;;;;;;;;5071155;28;20242;-49
2023/03/02 03:33:03;;;;;;;28.20;15.13;;;;;;;;;;5071019;28;20210;-49
2023/03/02 03:35:29;;;;;;;18.87;14.70;;;;;;;;;;5071194;28;20254;-50
2023/03/02 03:37:55;;;;;;;19.80;15.17;;;;;;;;;;5071133;28;20434;-50
2023/03/02 03:40:21;;;;;;;19.53;15.47;;;;;;;;;;5071178;28;21003;-48
2023/03/02 03:42:47;;;;;;;19.33;15.13;;;;;;;;;;5070983;28;20223;-50
2023/03/02 03:45:13;;;;;;;17.37;14.50;;;;;;;;;;5070857;28;20860;-48
2023/03/02 03:47:39;;;;;;;19.30;14.70;;;;;;;;;;5071041;28;20433;-50
2023/03/02 03:50:07;;;;;;;21.57;14.63;;;;;;;;;;5071306;28;20786;-50
2023/03/02 03:52:33;;;;;;;20.13;15.27;;;;;;;;;;5071013;28;20196;-50
2023/03/02 03:54:59;;;;;;;34.77;15.10;;;;;;;;;;5070847;28;20951;-48
2023/03/02 03:57:25;;;;;;;19.53;15.80;;;;;;;;;;5070917;28;20493;-50
2023/03/02 03:59:52;;;;;;;18.13;14.13;;;;;;;;;;5070801;28;20438;-48
2023/03/02 04:02:18;;;;;;;17.97;13.70;;;;;;;;;;5070950;28;20426;-48
2023/03/02 04:04:45;;;;;;;17.67;14.47;;;;;;;;;;5070779;28;20442;-47
2023/03/02 04:07:13;;;;;;;18.47;14.60;;;;;;;;;;5070858;28;20593;-48
2023/03/02 04:09:42;;;;;;;18.17;14.90;;;;;;;;;;5070734;28;20475;-48
2023/03/02 04:12:08;;;;;;;18.83;15.07;;;;;;;;;;5070941;28;20438;-48
2023/03/02 04:14:34;;;;;;;22.13;14.57;;;;;;;;;;5070659;28;20830;-48
2023/03/02 04:17:04;;;;;;;19.40;14.83;;;;;;;;;;5070825;28;20476;-50
2023/03/02 04:19:30;;;;;;;17.17;14.30;;;;;;;;;;5070798;28;20755;-48
2023/03/02 04:21:57;;;;;;;19.67;15.50;;;;;;;;;;5070491;28;20917;-49
2023/03/02 04:24:24;;;;;;;26.90;15.37;;;;;;;;;;5070859;28;20206;-49
2023/03/02 04:26:51;;;;;;;18.57;15.13;;;;;;;;;;5072693;28;20534;-49
2023/03/02 04:29:17;;;;;;;19.60;14.70;;;;;;;;;;5074300;28;20999;-49
2023/03/02 04:31:43;;;;;;;26.27;15.50;;;;;;;;;;5074178;28;20483;-49
2023/03/02 04:34:09;;;;;;;18.97;15.00;;;;;;;;;;5074342;28;20851;-49
2023/03/02 04:36:36;;;;;;;19.77;14.77;;;;;;;;;;5074368;28;20200;-49
2023/03/02 04:39:03;;;;;;;20.37;14.83;;;;;;;;;;5074062;28;20916;-49
2023/03/02 04:41:30;;;;;;;19.83;15.20;;;;;;;;;;5074057;28;20862;-48
2023/03/02 04:43:56;;;;;;;18.07;15.07;;;;;;;;;;5073863;28;20485;-49
2023/03/02 04:46:24;;;;;;;20.10;15.63;;;;;;;;;;5074217;28;20517;-49
2023/03/02 04:48:50;;;;;;;22.10;14.10;;;;;;;;;;5073932;28;20991;-49
2023/03/02 04:51:18;;;;;;;18.90;13.50;;;;;;;;;;5073981;28;20533;-49
2023/03/02 04:53:44;;;;;;;22.40;14.03;;;;;;;;;;5073815;28;20465;-49
2023/03/02 04:56:09;;;;;;;17.87;15.00;;;;;;;;;;5073795;28;20487;-49
2023/03/02 04:58:37;;;;;;;23.90;13.93;;;;;;;;;;5073799;28;20192;-49
2023/03/02 05:01:03;;;;;;;17.30;14.17;;;;;;;;;;5073641;28;20710;-48
2023/03/02 05:03:29;;;;;;;18.13;14.00;;;;;;;;;;5073730;28;20459;-49
2023/03/02 05:05:56;;;;;;;19.70;14.67;;;;;;;;;;5073713;28;20552;-49
2023/03/02 05:08:23;;;;;;;15.77;13.77;;;;;;;;;;5073635;28;20195;-48
2023/03/02 05:10:49;;;;;;;18.03;13.27;;;;;;;;;;5073593;28;20496;-49
2023/03/02 05:13:15;;;;;;;16.63;13.27;;;;;;;;;;5073315;28;20960;-49
2023/03/02 05:15:42;;;;;;;19.23;14.27;;;;;;;;;;5073358;28;20438;-49
2023/03/02 05:18:09;;;;;;;16.63;13.47;;;;;;;;;;5073601;28;20533;-49
2023/03/02 05:20:35;;;;;;;19.77;13.63;;;;;;;;;;5073503;28;20497;-50
2023/03/02 05:23:03;;;;;;;18.07;13.80;;;;;;;;;;5073698;28;20440;-49
2023/03/02 05:25:30;;;;;;;18.20;13.60;;;;;;;;;;5073335;28;20457;-49
2023/03/02 05:27:56;;;;;;;17.53;12.97;;;;;;;;;;5073444;28;20438;-49
2023/03/02 05:30:23;;;;;;;18.40;14.07;;;;;;;;;;5073275;28;20913;-49
2023/03/02 05:32:51;;;;;;;17.30;13.63;;;;;;;;;;5073192;28;20442;-49
2023/03/02 05:35:17;;;;;;;16.60;13.23;;;;;;;;;;5073110;28;20438;-49
2023/03/02 05:37:43;;;;;;;16.53;13.90;;;;;;;;;;5072167;28;20875;-49
2023/03/02 05:40:12;;;;;;;16.90;13.87;;;;;;;;;;5073160;28;20508;-49
2023/03/02 05:42:38;;;;;;;17.77;14.17;;;;;;;;;;5073057;28;20434;-49
2023/03/02 05:45:04;;;;;;;16.57;14.00;;;;;;;;;;5072833;28;20569;-49
2023/03/02 05:47:30;;;;;;;16.53;13.03;;;;;;;;;;5072842;28;20492;-49
2023/03/02 05:49:58;;;;;;;16.33;13.77;;;;;;;;;;5072738;28;20442;-49
2023/03/02 05:52:24;;;;;;;16.47;14.07;;;;;;;;;;5072801;28;20226;-49
2023/03/02 05:54:50;;;;;;;17.17;13.50;;;;;;;;;;5072780;28;20434;-48
2023/03/02 05:57:16;;;;;;;17.33;14.20;;;;;;;;;;5072723;28;20441;-48
2023/03/02 05:59:45;;;;;;;16.30;14.03;;;;;;;;;;5072606;28;20196;-48
2023/03/02 06:02:11;;;;;;;17.70;14.20;;;;;;;;;;5072613;28;20805;-48
2023/03/02 06:04:42;;;;;;;15.63;13.00;;;;;;;;;;5072679;28;20503;-48
2023/03/02 06:07:10;;;;;;;16.13;13.40;;;;;;;;;;5072779;28;20488;-49
2023/03/02 06:09:36;;;;;;;16.50;13.00;;;;;;;;;;5072414;28;20527;-48
2023/03/02 06:12:02;;;;;;;16.73;13.67;;;;;;;;;;5072314;28;20444;-48
2023/03/02 06:14:28;;;;;;;18.10;13.77;;;;;;;;;;5072276;28;20549;-48
2023/03/02 06:16:54;;;;;;;16.47;14.07;;;;;;;;;;5071995;28;20225;-50
2023/03/02 06:19:20;;;;;;;18.20;12.57;;;;;;;;;;5072149;28;20192;-49
2023/03/02 06:21:46;;;;;;;16.93;13.60;;;;;;;;;;5071972;28;20231;-49
2023/03/02 06:24:13;;;;;;;17.03;13.80;;;;;;;;;;5072096;28;20223;-49
2023/03/02 06:26:39;;;;;;;19.80;13.93;;;;;;;;;;5071802;28;20317;-50
2023/03/02 06:29:06;;;;;;;16.40;13.57;;;;;;;;;;5072068;28;20450;-49
2023/03/02 06:31:32;;;;;;;20.53;13.93;;;;;;;;;;5071960;28;20453;-49
2023/03/02 06:33:58;;;;;;;15.77;13.13;;;;;;;;;;5071645;28;20438;-49
2023/03/02 06:36:24;;;;;;;15.37;13.07;;;;;;;;;;5071863;28;20442;-50
2023/03/02 06:38:50;;;;;;;16.63;13.67;;;;;;;;;;5071674;28;20336;-49
2023/03/02 06:41:17;;;;;;;16.50;13.07;;;;;;;;;;5071757;28;20368;-50
2023/03/02 06:43:43;;;;;;;17.07;13.87;;;;;;;;;;5071351;28;20231;-49
2023/03/02 06:46:10;;;;;;;15.37;12.83;;;;;;;;;;5071744;28;20954;-49
2023/03/02 06:48:36;;;;;;;14.60;12.67;;;;;;;;;;5071888;28;20480;-49
2023/03/02 06:51:02;;;;;;;20.57;12.37;;;;;;;;;;5071495;28;20450;-49
2023/03/02 06:53:28;;;;;;;15.23;12.67;;;;;;;;;;5071483;28;20195;-49
2023/03/02 06:55:54;;;;;;;15.23;12.17;;;;;;;;;;5071500;28;20468;-49
2023/03/02 06:58:21;;;;;;;15.13;12.27;;;;;;;;;;5071653;28;20555;-49
2023/03/02 07:00:47;;;;;;;18.13;13.77;;;;;;;;;;5071663;28;20310;-49
2023/03/02 07:03:13;;;;;;;14.90;12.87;;;;;;;;;;5071659;28;20656;-49
2023/03/02 07:05:39;;;;;;;18.97;12.37;;;;;;;;;;5071467;28;20206;-51
2023/03/02 07:08:05;;;;;;;16.07;13.10;;;;;;;;;;5071759;28;20202;-49
2023/03/02 07:10:32;;;;;;;15.53;13.17;;;;;;;;;;5071670;28;20430;-49
2023/03/02 07:12:58;;;;;;;16.53;13.43;;;;;;;;;;5071195;28;20450;-49
2023/03/02 07:15:25;;;;;;;13.83;11.73;;;;;;;;;;5071409;28;20495;-49
2023/03/02 07:17:51;;;;;;;15.53;12.20;;;;;;;;;;5071323;28;20565;-49
2023/03/02 07:20:17;;;;;;;17.70;12.70;;;;;;;;;;5071294;28;20525;-50
2023/03/02 07:22:44;;;;;;;15.53;12.60;;;;;;;;;;5071316;28;20233;-49
2023/03/02 07:25:10;;;;;;;14.20;12.13;;;;;;;;;;5071381;28;20457;-50
2023/03/02 07:27:36;;;;;;;15.03;12.07;;;;;;;;;;5071177;28;20536;-50
2023/03/02 07:30:03;;;;;;;15.13;12.37;;;;;;;;;;5071272;28;20446;-50
2023/03/02 08:43:36;;;;;;;12.10;10.80;;;;;;;;;;5073856;28;20401;-49
2023/03/02 08:46:03;;;;;;;14.60;11.87;;;;;;;;;;5072069;28;20481;-49
2023/03/02 08:48:29;;;;;;;13.00;11.03;;;;;;;;;;5073656;28;20434;-49
2023/03/02 08:50:55;;;;;;;13.93;11.53;;;;;;;;;;5073941;28;20797;-50
2023/03/02 08:53:22;;;;;;;12.67;10.77;;;;;;;;;;5073770;28;20434;-49
2023/03/02 08:55:48;;;;;;;13.70;10.80;;;;;;;;;;5073580;28;20938;-50
2023/03/02 08:58:14;;;;;;;13.40;11.50;;;;;;;;;;5073521;28;20500;-50
2023/03/02 09:00:41;;;;;;;13.00;10.20;;;;;;;;;;5073356;28;20481;-50
2023/03/02 09:03:07;;;;;;;17.53;13.60;;;;;;;;;;5073730;28;20211;-50
2023/03/02 09:05:34;;;;;;;13.07;11.47;;;;;;;;;;5073875;28;20752;-50
2023/03/02 09:08:00;;;;;;;13.00;11.33;;;;;;;;;;5073786;28;20206;-50
2023/03/02 09:10:26;;;;;;;13.30;11.50;;;;;;;;;;5073513;28;20541;-50
2023/03/02 09:12:52;;;;;;;15.10;10.77;;;;;;;;;;5072368;28;20457;-50
2023/03/02 09:15:18;;;;;;;12.70;11.30;;;;;;;;;;5073297;28;20447;-50
2023/03/02 09:17:46;;;;;;;12.90;10.90;;;;;;;;;;5073339;28;20703;-50
2023/03/02 09:20:13;;;;;;;13.53;10.70;;;;;;;;;;5073077;28;20681;-51
2023/03/02 09:22:39;;;;;;;12.97;10.07;;;;;;;;;;5073181;28;20801;-53
2023/03/02 09:25:06;;;;;;;11.40;9.73;;;;;;;;;;5073246;28;20430;-51
2023/03/02 09:27:32;;;;;;;13.73;10.70;;;;;;;;;;5073076;28;20529;-52
2023/03/02 09:29:58;;;;;;;13.17;11.03;;;;;;;;;;5072920;28;20430;-50
2023/03/02 09:32:24;;;;;;;11.63;10.43;;;;;;;;;;5073089;28;20836;-50
2023/03/02 09:34:52;;;;;;;12.83;11.17;;;;;;;;;;5073167;28;20255;-50
2023/03/02 09:37:17;;;;;;;12.90;10.20;;;;;;;;;;5072958;28;20461;-50
2023/03/02 09:39:43;;;;;;;12.67;10.83;;;;;;;;;;5072988;28;20469;-49
2023/03/02 09:42:26;;;;;;;11.67;10.47;;;;;;;;;;5072834;28;20704;-49
2023/03/02 09:45:02;;;;;;;11.73;10.07;;;;;;;;;;5073254;28;20202;-49
2023/03/02 09:47:32;;;;;;;11.27;10.00;;;;;;;;;;5072684;28;20468;-51
2023/03/02 09:50:04;;;;;;;11.67;10.13;;;;;;;;;;5071195;28;20900;-51
2023/03/02 09:52:31;;;;;;;11.23;9.90;;;;;;;;;;5072741;28;20456;-51
2023/03/02 09:55:00;;;;;;;12.07;9.93;;;;;;;;;;5072619;28;20950;-50
2023/03/02 09:57:28;;;;;;;11.73;10.53;;;;;;;;;;5072672;28;20981;-50
2023/03/02 09:59:57;;;;;;;10.83;9.67;;;;;;;;;;5072753;28;20448;-50
2023/03/02 10:02:24;;;;;;;12.77;10.50;;;;;;;;;;5072631;28;21059;-49
2023/03/02 10:04:53;;;;;;;12.23;9.47;;;;;;;;;;5072720;28;20442;-50
2023/03/02 10:07:24;;;;;;;10.90;9.80;;;;;;;;;;5072548;28;20449;-50
2023/03/02 10:09:50;;;;;;;12.27;10.70;;;;;;;;;;5072797;28;20542;-50
2023/03/02 10:12:43;;;;;;;12.10;10.77;;;;;;;;;;5072393;28;20533;-50
2023/03/02 10:15:11;;;;;;;10.87;9.63;;;;;;;;;;5036377;28;20206;-50
2023/03/02 10:17:42;;;;;;;12.13;10.77;;;;;;;;;;5072418;28;20434;-49
2023/03/02 10:20:13;;;;;;;12.87;10.97;;;;;;;;;;5072192;28;20434;-49
2023/03/02 10:22:44;;;;;;;12.37;10.40;;;;;;;;;;5072257;28;20445;-50
2023/03/02 10:25:16;;;;;;;12.57;10.53;;;;;;;;;;5071765;28;20445;-50
2023/03/02 10:27:43;;;;;;;13.10;10.93;;;;;;;;;;5071951;28;20430;-50
2023/03/02 10:30:16;;;;;;;11.50;10.10;;;;;;;;;;5071823;28;20445;-50
2023/03/02 10:32:44;;;;;;;11.87;10.07;;;;;;;;;;5071831;28;20469;-50
2023/03/02 10:35:13;;;;;;;11.13;9.63;;;;;;;;;;5071803;28;20440;-51
2023/03/02 10:37:40;;;;;;;12.50;10.57;;;;;;;;;;5072057;28;20433;-50
2023/03/02 10:40:11;;;;;;;11.83;9.90;;;;;;;;;;5071643;28;20485;-49
2023/03/02 10:42:41;;;;;;;13.67;11.57;;;;;;;;;;5071832;28;20429;-51
2023/03/02 10:45:10;;;;;;;12.63;10.97;;;;;;;;;;5071893;28;20524;-51
2023/03/02 10:47:36;;;;;;;12.23;10.87;;;;;;;;;;5072066;28;20449;-51
2023/03/02 10:50:03;;;;;;;12.20;10.57;;;;;;;;;;5071690;28;20434;-51
2023/03/02 10:52:29;;;;;;;11.70;9.93;;;;;;;;;;5071527;28;20490;-51
2023/03/02 10:55:03;;;;;;;11.43;10.23;;;;;;;;;;5071727;28;20458;-51
2023/03/02 10:57:34;;;;;;;12.70;10.60;;;;;;;;;;5071536;28;20468;-51
2023/03/02 11:00:01;;;;;;;12.97;10.63;;;;;;;;;;5071518;28;20491;-49
2023/03/02 11:02:28;;;;;;;11.47;9.93;;;;;;;;;;5071372;28;20485;-50
2023/03/02 11:04:54;;;;;;;12.30;10.80;;;;;;;;;;5071517;28;20461;-50
2023/03/02 11:07:22;;;;;;;13.73;10.80;;;;;;;;;;5069613;28;20496;-50
2023/03/02 11:09:58;;;;;;;11.13;9.90;;;;;;;;;;5070851;28;20476;-50
2023/03/02 11:12:25;;;;;;;12.90;10.43;;;;;;;;;;5071400;28;20536;-50
2023/03/02 11:15:00;;;;;;;11.83;10.63;;;;;;;;;;5071237;28;20445;-50
2023/03/02 11:17:30;;;;;;;11.40;10.03;;;;;;;;;;5071102;28;20537;-50
2023/03/02 11:19:56;;;;;;;12.13;10.83;;;;;;;;;;5071221;28;20449;-51
2023/03/02 11:22:27;;;;;;;12.37;10.53;;;;;;;;;;5071182;28;20828;-50
2023/03/02 11:24:55;;;;;;;11.83;10.57;;;;;;;;;;5071150;28;20872;-50
2023/03/02 11:27:26;;;;;;;11.20;9.93;;;;;;;;;;5071102;28;20438;-50
2023/03/02 11:29:57;;;;;;;11.70;9.73;;;;;;;;;;5071254;28;20445;-49
2023/03/02 11:32:28;;;;;;;12.37;10.13;;;;;;;;;;5067841;28;20442;-50
2023/03/02 11:34:56;;;;;;;15.67;14.07;;;;;;;;;;5069285;28;20802;-50
2023/03/02 11:37:23;;;;;;;11.70;10.50;;;;;;;;;;5068473;28;20464;-50
2023/03/02 11:40:02;;;;;;;14.90;13.50;;;;;;;;;;5068853;28;20480;-50
2023/03/02 11:42:30;;;;;;;12.03;10.77;;;;;;;;;;5068713;28;20473;-51
2023/03/02 11:45:00;;;;;;;13.70;11.03;;;;;;;;;;5069377;28;20474;-51
2023/03/02 11:47:26;;;;;;;13.07;11.37;;;;;;;;;;5070153;28;20802;-51
2023/03/02 11:49:55;;;;;;;13.27;11.43;;;;;;;;;;5070853;28;20936;-51
2023/03/02 11:52:22;;;;;;;14.43;11.40;;;;;;;;;;5070440;28;20438;-50
2023/03/02 11:54:50;;;;;;;11.77;10.50;;;;;;;;;;5070653;28;20477;-49
2023/03/02 11:57:19;;;;;;;12.67;10.53;;;;;;;;;;5070975;28;20887;-49
2023/03/02 11:59:45;;;;;;;11.97;10.60;;;;;;;;;;5070939;28;20706;-51
2023/03/02 12:02:13;;;;;;;12.87;10.00;;;;;;;;;;5070726;28;20526;-51
2023/03/02 12:04:39;;;;;;;11.37;10.13;;;;;;;;;;5070716;28;20442;-51
2023/03/02 12:07:15;;;;;;;11.87;10.47;;;;;;;;;;5070738;28;20442;-49
2023/03/02 12:09:42;;;;;;;11.57;10.20;;;;;;;;;;5070587;28;20437;-50
2023/03/02 12:12:31;;;;;;;12.57;9.87;;;;;;;;;;5070560;28;20445;-50
2023/03/02 12:14:59;;;;;;;12.57;9.87;;;;;;;;;;5070521;28;20932;-49
2023/03/02 12:17:31;;;;;;;12.27;10.20;;;;;;;;;;5070436;28;20516;-50
2023/03/02 12:20:07;;;;;;;12.30;11.00;;;;;;;;;;5070389;28;20465;-50
2023/03/02 12:22:34;;;;;;;10.97;9.83;;;;;;;;;;5070534;28;20523;-49
2023/03/02 12:25:04;;;;;;;11.43;10.23;;;;;;;;;;5070771;28;20449;-50
2023/03/02 12:27:34;;;;;;;11.80;10.50;;;;;;;;;;5070370;28;20491;-50
2023/03/02 12:30:09;;;;;;;13.03;11.20;;;;;;;;;;5070642;28;20448;-52
2023/03/02 12:32:36;;;;;;;13.33;10.10;;;;;;;;;;5070728;28;20804;-53
2023/03/02 12:35:03;;;;;;;14.33;11.10;;;;;;;;;;5070701;28;20433;-54
2023/03/02 12:37:31;;;;;;;13.90;11.07;;;;;;;;;;5070502;28;20503;-52
2023/03/02 12:40:27;;;;;;;13.00;11.40;;;;;;;;;;5064193;28;20495;-52
2023/03/02 12:43:17;;;;;;;12.97;11.13;;;;;;;;;;5035847;28;20437;-52
2023/03/02 12:45:47;;;;;;;12.03;10.73;;;;;;;;;;5070495;28;20449;-52
2023/03/02 12:48:22;;;;;;;14.70;11.97;;;;;;;;;;5072913;28;20534;-51
2023/03/02 12:50:48;;;;;;;14.03;11.47;;;;;;;;;;5074007;28;20510;-52
2023/03/02 12:53:16;;;;;;;13.37;11.43;;;;;;;;;;5073757;28;20425;-52
2023/03/02 12:55:42;;;;;;;14.23;12.17;;;;;;;;;;5073691;28;20446;-52
2023/03/02 12:58:14;;;;;;;17.30;13.60;;;;;;;;;;5074098;28;20444;-52
2023/03/02 13:00:48;;;;;;;13.53;11.60;;;;;;;;;;5073786;28;20227;-53
2023/03/02 13:03:14;;;;;;;14.23;12.10;;;;;;;;;;5073636;28;20437;-52
2023/03/02 13:05:41;;;;;;;15.13;11.93;;;;;;;;;;5073311;28;20445;-53
2023/03/02 13:08:09;;;;;;;13.67;11.13;;;;;;;;;;5073807;28;20204;-52
2023/03/02 13:10:35;;;;;;;13.50;11.43;;;;;;;;;;5073474;28;20442;-53
2023/03/02 13:13:02;;;;;;;13.80;11.43;;;;;;;;;;5073669;28;20453;-53
2023/03/02 13:15:28;;;;;;;14.50;11.67;;;;;;;;;;5069709;28;20528;-53
2023/03/02 13:17:55;;;;;;;14.13;11.43;;;;;;;;;;5073537;28;20452;-53
2023/03/02 13:20:22;;;;;;;13.37;11.43;;;;;;;;;;5073458;28;20445;-53
2023/03/02 13:22:49;;;;;;;14.23;11.67;;;;;;;;;;5073357;28;20422;-52
2023/03/02 13:25:20;;;;;;;15.97;12.10;;;;;;;;;;5073147;28;20456;-53
2023/03/02 13:27:51;;;;;;;60.73;44.27;;;;;;;;;;5073366;28;20564;-53
2023/03/02 13:30:21;;;;;;;165.60;117.20;;;;;;;;;;5073210;28;20796;-53
2023/03/02 13:32:49;;;;;;;36.60;26.07;;;;;;;;;;5072999;28;20437;-53
2023/03/02 13:35:25;;;;;;;112.33;82.00;;;;;;;;;;5073064;28;20453;-53
2023/03/02 13:37:57;;;;;;;24.00;21.03;;;;;;;;;;5073399;28;20472;-53
2023/03/02 13:40:33;;;;;;;37.03;33.10;;;;;;;;;;5072938;28;20814;-53
2023/03/02 13:42:59;;;;;;;20.10;15.87;;;;;;;;;;5072893;28;20904;-53
2023/03/02 13:45:26;;;;;;;19.10;16.03;;;;;;;;;;5072659;28;20522;-53
2023/03/02 13:47:53;;;;;;;17.40;13.60;;;;;;;;;;5073099;28;20203;-53
2023/03/02 13:50:20;;;;;;;17.73;15.03;;;;;;;;;;5072914;28;20430;-53
2023/03/02 13:52:46;;;;;;;23.60;20.03;;;;;;;;;;5072798;28;20491;-53
2023/03/02 13:55:14;;;;;;;32.20;28.77;;;;;;;;;;5070741;28;20426;-52
2023/03/02 13:57:40;;;;;;;18.07;14.53;;;;;;;;;;5072824;28;20453;-52
2023/03/02 14:00:10;;;;;;;17.57;15.67;;;;;;;;;;5072335;28;20536;-52
2023/03/02 14:02:36;;;;;;;15.80;13.07;;;;;;;;;;5070528;28;20970;-52
2023/03/02 14:05:02;;;;;;;19.90;15.73;;;;;;;;;;5072403;28;20433;-52
2023/03/02 14:07:28;;;;;;;20.37;16.80;;;;;;;;;;5072066;28;20235;-52
2023/03/02 14:09:54;;;;;;;22.27;18.60;;;;;;;;;;5072237;28;20827;-52
2023/03/02 14:12:23;;;;;;;20.07;17.73;;;;;;;;;;5072369;28;20430;-52
2023/03/02 14:14:50;;;;;;;23.37;17.90;;;;;;;;;;5072266;28;20211;-52
2023/03/02 14:17:20;;;;;;;20.83;16.50;;;;;;;;;;5072107;28;20535;-52
2023/03/02 14:19:51;;;;;;;18.83;14.33;;;;;;;;;;5071972;28;20446;-52
2023/03/02 14:22:17;;;;;;;18.23;14.73;;;;;;;;;;5071898;28;20478;-52
2023/03/02 14:24:44;;;;;;;16.73;14.47;;;;;;;;;;5072106;28;20430;-52
2023/03/02 14:27:11;;;;;;;23.40;17.70;;;;;;;;;;5072068;28;20434;-52
2023/03/02 14:29:38;;;;;;;24.20;18.03;;;;;;;;;;5071969;28;20774;-52
2023/03/02 14:32:07;;;;;;;18.93;16.47;;;;;;;;;;5071997;28;20446;-52
2023/03/02 14:34:35;;;;;;;19.43;15.40;;;;;;;;;;5071558;28;20442;-52
2023/03/02 14:37:03;;;;;;;21.43;19.17;;;;;;;;;;5071660;28;20517;-51
2023/03/02 14:39:31;;;;;;;17.37;15.37;;;;;;;;;;5071433;28;20512;-52
2023/03/02 14:41:57;;;;;;;17.57;14.40;;;;;;;;;;5072141;28;20485;-52
2023/03/02 14:44:23;;;;;;;28.70;22.60;;;;;;;;;;5071956;28;20422;-52
2023/03/02 14:46:51;;;;;;;18.77;16.30;;;;;;;;;;5071914;28;20670;-52
2023/03/02 14:49:17;;;;;;;19.40;15.70;;;;;;;;;;5069489;28;20215;-52
2023/03/02 14:51:44;;;;;;;17.20;14.40;;;;;;;;;;5071075;28;20446;-52
2023/03/02 14:54:13;;;;;;;16.60;14.10;;;;;;;;;;5071454;28;20202;-52
2023/03/02 14:56:39;;;;;;;17.00;14.80;;;;;;;;;;5071438;28;20524;-52
2023/03/02 14:59:05;;;;;;;15.83;13.60;;;;;;;;;;5071460;28;20993;-52
2023/03/02 15:01:31;;;;;;;19.43;15.23;;;;;;;;;;5071208;28;20509;-52
2023/03/02 15:03:59;;;;;;;19.53;15.23;;;;;;;;;;5071223;28;20473;-52
2023/03/02 15:06:26;;;;;;;20.47;15.47;;;;;;;;;;5071227;28;20204;-52
2023/03/02 15:08:52;;;;;;;19.57;16.27;;;;;;;;;;5071407;28;20521;-52
2023/03/02 15:11:18;;;;;;;18.63;16.07;;;;;;;;;;5070322;28;20438;-52
2023/03/02 15:13:44;;;;;;;19.67;15.90;;;;;;;;;;5071130;28;20446;-52
2023/03/02 15:16:11;;;;;;;17.97;14.70;;;;;;;;;;5070893;28;20199;-52
2023/03/02 15:18:37;;;;;;;17.63;15.37;;;;;;;;;;5071070;28;20513;-52
2023/03/02 15:21:04;;;;;;;20.03;15.67;;;;;;;;;;5070888;28;21059;-52
2023/03/02 15:23:31;;;;;;;20.00;15.87;;;;;;;;;;5071238;28;20206;-52
2023/03/02 15:25:58;;;;;;;19.80;15.93;;;;;;;;;;5071606;28;20465;-52
2023/03/02 15:28:24;;;;;;;17.93;15.73;;;;;;;;;;5071517;28;20433;-52
2023/03/02 15:30:50;;;;;;;89.10;68.27;;;;;;;;;;5071504;28;20529;-52
2023/03/02 15:33:16;;;;;;;17.97;14.27;;;;;;;;;;5071392;28;20253;-52